createdAt,value
2023-02-27T00:00:41.513Z,1.20
2023-02-27T00:05:35.226Z,1.23
2023-02-27T00:08:02.061Z,1.30
2023-02-27T00:10:29.059Z,1.27
2023-02-27T00:12:58.154Z,1.20
2023-02-27T00:15:32.135Z,1.27
2023-02-27T00:18:00.139Z,1.13
2023-02-27T00:20:32.327Z,1.00
2023-02-27T00:23:01.796Z,1.20
2023-02-27T00:25:28.713Z,1.40
2023-02-27T00:27:56.804Z,1.40
2023-02-27T00:30:23.758Z,1.40
2023-02-27T00:32:53.317Z,1.30
2023-02-27T00:35:20.709Z,1.10
2023-02-27T00:37:48.303Z,1.25
2023-02-27T00:40:15.523Z,1.45
2023-02-27T00:42:42.629Z,1.40
2023-02-27T00:45:10.214Z,1.33
2023-02-27T00:47:37.138Z,1.17
2023-02-27T00:50:04.986Z,1.40
2023-02-27T00:52:33.636Z,1.20
2023-02-27T00:55:03.291Z,1.10
2023-02-27T00:57:31.810Z,1.30
2023-02-27T01:00:00.776Z,1.25
2023-02-27T01:02:27.778Z,1.40
2023-02-27T01:04:54.660Z,1.30
2023-02-27T01:07:24.668Z,1.48
2023-02-27T01:09:51.477Z,1.48
2023-02-27T01:12:18.573Z,1.05
2023-02-27T01:14:45.455Z,1.20
2023-02-27T01:17:12.451Z,1.15
2023-02-27T01:19:39.488Z,1.30
2023-02-27T01:22:06.726Z,1.10
2023-02-27T01:24:38.838Z,1.30
2023-02-27T01:27:05.892Z,1.13
2023-02-27T01:29:32.909Z,1.50
2023-02-27T01:32:02.417Z,1.00
2023-02-27T01:34:29.758Z,1.30
2023-02-27T01:36:56.746Z,1.38
2023-02-27T01:39:23.750Z,1.35
2023-02-27T01:41:50.637Z,1.40
2023-02-27T01:44:22.389Z,1.52
2023-02-27T01:46:51.812Z,1.40
2023-02-27T01:49:29.407Z,1.50
2023-02-27T01:52:07.610Z,1.42
2023-02-27T01:54:40.857Z,1.50
2023-02-27T01:57:09.739Z,1.45
2023-02-27T01:59:44.130Z,1.30
2023-02-27T02:02:25.742Z,1.50
2023-02-27T02:07:21.996Z,1.35
2023-02-27T02:09:57.838Z,1.45
2023-02-27T02:12:31.907Z,1.10
2023-02-27T02:14:58.872Z,1.40
2023-02-27T02:17:51.124Z,1.42
2023-02-27T02:20:39.069Z,1.23
2023-02-27T02:23:27.363Z,1.20
2023-02-27T02:26:33.202Z,1.50
2023-02-27T02:29:30.524Z,1.27
2023-02-27T02:32:34.592Z,1.35
2023-02-27T02:35:25.714Z,1.33
2023-02-27T02:38:25.072Z,1.33
2023-02-27T02:41:09.944Z,1.40
2023-02-27T02:44:04.441Z,1.50
2023-02-27T02:46:42.476Z,1.30
2023-02-27T02:49:34.045Z,1.23
2023-02-27T02:52:38.607Z,1.63
2023-02-27T02:55:25.012Z,1.27
2023-02-27T02:58:12.058Z,1.30
2023-02-27T03:00:55.335Z,1.10
2023-02-27T03:03:30.582Z,1.20
2023-02-27T03:06:27.819Z,1.38
2023-02-27T03:09:02.197Z,1.33
2023-02-27T03:11:36.576Z,1.30
2023-02-27T03:14:20.412Z,1.25
2023-02-27T03:16:53.211Z,1.30
2023-02-27T03:19:38.831Z,1.27
2023-02-27T03:22:13.698Z,1.00
2023-02-27T03:24:48.397Z,1.50
2023-02-27T03:27:20.497Z,1.50
2023-02-27T03:29:50.976Z,1.42
2023-02-27T03:32:56.891Z,1.10
2023-02-27T03:35:39.061Z,1.58
2023-02-27T03:38:16.999Z,1.45
2023-02-27T03:41:01.055Z,1.33
2023-02-27T03:43:47.648Z,1.42
2023-02-27T03:46:24.203Z,1.80
2023-02-27T03:48:55.986Z,1.65
2023-02-27T03:51:25.562Z,1.50
2023-02-27T03:54:20.075Z,1.65
2023-02-27T03:57:01.026Z,1.60
2023-02-27T03:59:29.574Z,1.52
2023-02-27T04:02:00.847Z,1.60
2023-02-27T04:04:32.595Z,1.30
2023-02-27T04:07:22.860Z,1.42
2023-02-27T04:10:58.814Z,1.60
2023-02-27T04:14:16.549Z,1.40
2023-02-27T04:17:10.884Z,1.60
2023-02-27T04:19:58.584Z,1.70
2023-02-27T04:22:51.810Z,1.80
2023-02-27T04:25:33.206Z,1.90
2023-02-27T04:28:15.708Z,1.63
2023-02-27T04:31:04.661Z,1.92
2023-02-27T04:33:45.305Z,1.70
2023-02-27T04:36:30.026Z,2.10
2023-02-27T04:39:30.454Z,1.75
2023-02-27T04:42:17.269Z,1.40
2023-02-27T04:44:48.732Z,1.83
2023-02-27T04:47:18.222Z,1.63
2023-02-27T04:50:11.099Z,1.88
2023-02-27T04:52:43.844Z,1.70
2023-02-27T04:55:35.953Z,1.95
2023-02-27T04:58:10.360Z,1.88
2023-02-27T05:00:40.258Z,1.88
2023-02-27T05:03:25.160Z,1.70
2023-02-27T05:05:58.245Z,1.85
2023-02-27T05:08:47.612Z,1.67
2023-02-27T05:11:34.979Z,1.95
2023-02-27T05:14:20.721Z,1.67
2023-02-27T05:16:59.113Z,1.65
2023-02-27T05:19:28.717Z,1.90
2023-02-27T05:22:11.409Z,1.80
2023-02-27T05:25:00.408Z,1.90
2023-02-27T05:27:59.146Z,1.80
2023-02-27T05:30:50.188Z,2.05
2023-02-27T05:34:06.489Z,1.67
2023-02-27T05:37:00.027Z,1.70
2023-02-27T05:39:30.482Z,1.80
2023-02-27T05:42:08.093Z,1.70
2023-02-27T05:44:41.367Z,2.08
2023-02-27T05:47:16.203Z,1.95
2023-02-27T05:49:51.428Z,1.80
2023-02-27T05:52:24.746Z,2.03
2023-02-27T05:55:24.051Z,2.08
2023-02-27T05:57:56.988Z,1.70
2023-02-27T06:00:37.621Z,2.00
2023-02-27T06:03:04.784Z,1.85
2023-02-27T06:05:31.975Z,2.00
2023-02-27T06:07:58.953Z,1.75
2023-02-27T06:10:28.558Z,2.00
2023-02-27T06:12:55.521Z,2.08
2023-02-27T06:15:25.412Z,1.98
2023-02-27T06:17:52.307Z,1.95
2023-02-27T06:20:19.253Z,1.98
2023-02-27T06:22:46.140Z,2.42
2023-02-27T06:25:13.325Z,2.13
2023-02-27T06:27:42.856Z,2.13
2023-02-27T06:30:10.495Z,2.00
2023-02-27T06:32:37.488Z,2.17
2023-02-27T06:35:06.307Z,2.60
2023-02-27T06:37:35.896Z,2.45
2023-02-27T06:40:04.888Z,2.00
2023-02-27T06:42:32.864Z,2.45
2023-02-27T06:45:02.268Z,2.20
2023-02-27T06:47:29.256Z,2.05
2023-02-27T06:49:56.122Z,1.98
2023-02-27T06:52:23.043Z,2.22
2023-02-27T06:54:54.486Z,2.38
2023-02-27T06:57:21.341Z,2.05
2023-02-27T06:59:48.244Z,2.08
2023-02-27T07:02:17.429Z,2.38
2023-02-27T07:04:44.946Z,2.80
2023-02-27T07:07:33.798Z,2.10
2023-02-27T07:10:03.702Z,2.15
2023-02-27T07:12:30.576Z,1.80
2023-02-27T07:14:57.451Z,2.10
2023-02-27T07:17:24.347Z,1.90
2023-02-27T07:19:51.167Z,2.03
2023-02-27T07:22:18.082Z,1.90
2023-02-27T07:24:44.981Z,1.90
2023-02-27T07:27:11.858Z,2.00
2023-02-27T07:29:38.789Z,2.33
2023-02-27T07:32:05.837Z,2.17
2023-02-27T07:34:35.730Z,2.58
2023-02-27T07:37:04.625Z,2.15
2023-02-27T07:39:34.220Z,2.28
2023-02-27T07:42:03.412Z,2.00
2023-02-27T07:44:33.062Z,2.03
2023-02-27T07:47:02.161Z,1.92
2023-02-27T07:49:31.509Z,1.70
2023-02-27T07:51:58.468Z,1.70
2023-02-27T07:54:25.455Z,2.00
2023-02-27T07:56:52.288Z,1.75
2023-02-27T07:59:19.314Z,2.03
2023-02-27T08:01:46.169Z,2.13
2023-02-27T08:04:15.130Z,2.10
2023-02-27T08:06:44.880Z,1.85
2023-02-27T08:09:11.799Z,2.20
2023-02-27T08:11:41.093Z,1.85
2023-02-27T08:14:10.205Z,1.80
2023-02-27T08:16:39.607Z,1.70
2023-02-27T08:19:06.592Z,1.80
2023-02-27T08:21:33.484Z,2.10
2023-02-27T08:24:02.883Z,2.45
2023-02-27T08:26:31.325Z,2.03
2023-02-27T08:29:02.963Z,2.00
2023-02-27T08:34:04.573Z,1.70
2023-02-27T08:36:36.863Z,2.13
2023-02-27T08:39:04.583Z,2.17
2023-02-27T08:41:31.415Z,2.13
2023-02-27T08:44:00.663Z,2.05
2023-02-27T08:46:27.868Z,2.20
2023-02-27T08:48:54.971Z,1.95
2023-02-27T08:51:21.986Z,1.85
2023-02-27T08:53:48.798Z,2.28
2023-02-27T08:56:15.634Z,1.88
2023-02-27T08:58:42.537Z,2.25
2023-02-27T09:01:09.559Z,2.00
2023-02-27T09:03:37.406Z,2.10
2023-02-27T09:06:05.186Z,2.33
2023-02-27T09:08:32.299Z,2.03
2023-02-27T09:11:01.570Z,2.60
2023-02-27T09:13:28.873Z,2.38
2023-02-27T09:15:58.393Z,1.85
2023-02-27T09:18:25.348Z,2.10
2023-02-27T09:20:52.658Z,2.00
2023-02-27T09:23:22.882Z,2.35
2023-02-27T09:25:52.284Z,1.90
2023-02-27T09:28:24.745Z,2.00
2023-02-27T09:30:56.255Z,1.95
2023-02-27T09:35:51.599Z,1.73
2023-02-27T09:38:21.211Z,2.17
2023-02-27T09:40:51.796Z,2.00
2023-02-27T09:43:27.876Z,1.77
2023-02-27T09:45:56.569Z,2.03
2023-02-27T09:48:39.112Z,1.67
2023-02-27T09:51:08.514Z,2.30
2023-02-27T09:53:49.324Z,2.03
2023-02-27T09:56:30.888Z,2.20
2023-02-27T09:59:35.536Z,1.88
2023-02-27T10:02:28.641Z,1.98
2023-02-27T10:05:39.513Z,2.20
2023-02-27T10:08:29.585Z,1.95
2023-02-27T10:11:06.256Z,1.85
2023-02-27T10:14:03.320Z,1.98
2023-02-27T10:16:35.441Z,2.30
2023-02-27T10:19:16.636Z,1.90
2023-02-27T10:21:51.087Z,2.05
2023-02-27T10:24:37.430Z,2.05
2023-02-27T10:27:07.674Z,2.00
2023-02-27T10:29:41.616Z,2.45
2023-02-27T10:32:18.518Z,2.47
2023-02-27T10:35:08.360Z,1.60
2023-02-27T10:37:37.511Z,1.70
2023-02-27T10:40:06.759Z,2.13
2023-02-27T10:42:38.847Z,1.98
2023-02-27T10:45:14.843Z,1.85
2023-02-27T10:47:42.689Z,1.77
2023-02-27T10:50:27.650Z,1.58
2023-02-27T10:53:05.172Z,3.08
2023-02-27T10:55:36.783Z,1.92
2023-02-27T11:00:47.883Z,1.77
2023-02-27T11:03:34.245Z,1.73
2023-02-27T11:06:25.395Z,1.80
2023-02-27T11:09:21.550Z,2.17
2023-02-27T11:11:49.573Z,1.80
2023-02-27T11:14:36.312Z,1.90
2023-02-27T11:17:03.881Z,1.75
2023-02-27T11:19:38.390Z,1.92
2023-02-27T11:22:23.562Z,1.90
2023-02-27T11:24:53.628Z,1.60
2023-02-27T11:27:30.418Z,2.05
2023-02-27T11:30:09.406Z,2.00
2023-02-27T11:32:44.944Z,1.88
2023-02-27T11:35:37.626Z,2.20
2023-02-27T11:38:08.887Z,2.50
2023-02-27T11:40:50.333Z,1.95
2023-02-27T11:43:27.006Z,2.10
2023-02-27T11:46:36.157Z,1.92
2023-02-27T11:49:35.289Z,2.45
2023-02-27T11:52:30.046Z,1.83
2023-02-27T11:55:03.286Z,1.98
2023-02-27T11:57:40.358Z,2.30
2023-02-27T12:00:39.535Z,2.08
2023-02-27T12:03:32.623Z,1.83
2023-02-27T12:06:11.345Z,2.03
2023-02-27T12:09:07.118Z,2.05
2023-02-27T12:11:44.516Z,1.77
2023-02-27T12:14:25.519Z,1.95
2023-02-27T12:16:59.382Z,2.00
2023-02-27T12:20:20.660Z,2.30
2023-02-27T12:22:51.858Z,2.03
2023-02-27T12:25:36.428Z,2.05
2023-02-27T12:28:17.254Z,2.25
2023-02-27T12:31:06.290Z,2.00
2023-02-27T12:33:50.095Z,2.08
2023-02-27T12:36:19.398Z,2.08
2023-02-27T12:38:49.032Z,2.05
2023-02-27T12:41:34.037Z,2.08
2023-02-27T12:44:46.065Z,1.80
2023-02-27T12:47:56.193Z,1.85
2023-02-27T12:50:26.106Z,2.20
2023-02-27T12:53:20.610Z,2.05
2023-02-27T12:56:25.194Z,2.03
2023-02-27T12:59:03.617Z,2.17
2023-02-27T13:01:48.286Z,2.40
2023-02-27T13:04:20.354Z,2.20
2023-02-27T13:07:13.847Z,1.92
2023-02-27T13:09:40.679Z,2.15
2023-02-27T13:12:07.514Z,1.98
2023-02-27T13:14:40.006Z,2.00
2023-02-27T13:17:54.769Z,2.38
2023-02-27T13:20:21.628Z,1.77
2023-02-27T13:22:56.878Z,2.60
2023-02-27T13:25:27.876Z,2.17
2023-02-27T13:28:02.996Z,1.92
2023-02-27T13:30:32.469Z,2.08
2023-02-27T13:33:26.423Z,2.10
2023-02-27T13:36:26.809Z,2.30
2023-02-27T13:39:02.855Z,2.28
2023-02-27T13:41:36.073Z,2.55
2023-02-27T13:44:21.113Z,2.78
2023-02-27T13:46:48.378Z,2.25
2023-02-27T13:49:30.186Z,2.17
2023-02-27T13:52:04.947Z,2.08
2023-02-27T13:54:42.185Z,2.40
2023-02-27T13:57:22.578Z,2.03
2023-02-27T13:59:58.162Z,2.50
2023-02-27T14:02:31.115Z,2.13
2023-02-27T14:05:03.694Z,2.20
2023-02-27T14:08:08.211Z,2.40
2023-02-27T14:10:37.566Z,2.17
2023-02-27T14:13:05.259Z,2.45
2023-02-27T14:15:35.771Z,2.20
2023-02-27T14:18:15.918Z,2.15
2023-02-27T14:20:44.726Z,2.28
2023-02-27T14:23:20.607Z,2.20
2023-02-27T14:26:00.005Z,2.20
2023-02-27T14:28:46.088Z,2.20
2023-02-27T14:31:28.754Z,2.20
2023-02-27T14:34:04.993Z,2.25
2023-02-27T14:37:07.166Z,1.90
2023-02-27T14:39:40.645Z,2.22
2023-02-27T14:42:16.326Z,1.95
2023-02-27T14:44:48.396Z,2.08
2023-02-27T14:47:27.567Z,2.20
2023-02-27T14:49:56.198Z,2.25
2023-02-27T14:52:29.810Z,1.80
2023-02-27T14:55:27.993Z,2.17
2023-02-27T14:58:25.027Z,1.70
2023-02-27T15:01:08.485Z,1.90
2023-02-27T15:03:42.104Z,2.45
2023-02-27T15:06:34.942Z,2.10
2023-02-27T15:09:04.931Z,1.55
2023-02-27T15:11:32.159Z,2.00
2023-02-27T15:14:04.625Z,2.00
2023-02-27T15:16:39.763Z,2.30
2023-02-27T15:19:24.802Z,1.63
2023-02-27T15:22:04.036Z,1.90
2023-02-27T15:24:49.548Z,1.70
2023-02-27T15:27:21.631Z,1.70
2023-02-27T15:30:03.910Z,1.90
2023-02-27T15:32:31.833Z,1.58
2023-02-27T15:35:05.049Z,2.20
2023-02-27T15:37:34.665Z,1.90
2023-02-27T15:40:06.431Z,1.85
2023-02-27T15:42:36.489Z,2.00
2023-02-27T15:45:07.351Z,1.95
2023-02-27T15:47:37.842Z,2.13
2023-02-27T15:50:26.667Z,1.88
2023-02-27T15:53:19.215Z,2.20
2023-02-27T15:55:59.328Z,1.98
2023-02-27T15:58:27.790Z,1.90
2023-02-27T16:01:26.044Z,1.95
2023-02-27T16:03:56.390Z,1.70
2023-02-27T16:06:27.933Z,1.92
2023-02-27T16:08:57.023Z,1.90
2023-02-27T16:11:30.558Z,1.95
2023-02-27T16:14:02.922Z,1.88
2023-02-27T16:16:38.730Z,1.80
2023-02-27T16:19:29.380Z,1.48
2023-02-27T16:22:18.906Z,1.88
2023-02-27T16:24:46.877Z,1.95
2023-02-27T16:27:29.343Z,1.70
2023-02-27T16:30:03.056Z,1.83
2023-02-27T16:32:38.992Z,1.67
2023-02-27T16:35:23.955Z,1.77
2023-02-27T16:37:55.027Z,1.60
2023-02-27T16:40:25.963Z,1.40
2023-02-27T16:42:53.711Z,1.45
2023-02-27T16:45:28.193Z,1.77
2023-02-27T16:47:58.758Z,1.77
2023-02-27T16:50:43.082Z,1.75
2023-02-27T16:53:10.057Z,1.75
2023-02-27T16:55:41.046Z,2.05
2023-02-27T16:58:12.722Z,1.70
2023-02-27T17:03:06.400Z,1.38
2023-02-27T17:05:37.452Z,1.83
2023-02-27T17:08:04.719Z,1.90
2023-02-27T17:10:31.634Z,1.77
2023-02-27T17:12:58.488Z,2.10
2023-02-27T17:15:27.618Z,1.90
2023-02-27T17:17:56.926Z,1.80
2023-02-27T17:20:27.962Z,2.00
2023-02-27T17:22:54.886Z,1.73
2023-02-27T17:25:21.955Z,2.00
2023-02-27T17:27:49.577Z,1.92
2023-02-27T17:30:16.591Z,2.00
2023-02-27T17:32:43.520Z,1.80
2023-02-27T17:35:11.258Z,2.03
2023-02-27T17:37:38.450Z,1.80
2023-02-27T17:40:09.341Z,1.70
2023-02-27T17:42:36.999Z,1.63
2023-02-27T17:45:14.484Z,1.73
2023-02-27T17:47:41.645Z,2.00
2023-02-27T17:50:13.207Z,1.90
2023-02-27T17:55:10.542Z,1.70
2023-02-27T17:57:39.469Z,1.85
2023-02-27T18:00:15.894Z,1.88
2023-02-27T18:02:48.425Z,2.35
2023-02-27T18:05:18.568Z,2.00
2023-02-27T18:07:48.121Z,1.88
2023-02-27T18:10:15.768Z,1.77
2023-02-27T18:12:43.151Z,2.08
2023-02-27T18:15:13.468Z,1.92
2023-02-27T18:17:40.328Z,1.95
2023-02-27T18:20:08.200Z,2.15
2023-02-27T18:22:37.336Z,1.98
2023-02-27T18:25:07.207Z,2.28
2023-02-27T18:27:39.134Z,2.53
2023-02-27T18:30:10.141Z,2.10
2023-02-27T18:32:40.062Z,3.88
2023-02-27T18:35:12.060Z,3.28
2023-02-27T18:37:41.853Z,2.35
2023-02-27T18:40:09.979Z,2.70
2023-02-27T18:42:36.946Z,2.42
2023-02-27T18:45:04.741Z,2.17
2023-02-27T18:47:34.442Z,2.30
2023-02-27T18:50:03.789Z,2.60
2023-02-27T18:52:31.581Z,2.22
2023-02-27T18:55:01.922Z,2.22
2023-02-27T18:57:31.140Z,2.80
2023-02-27T18:59:58.025Z,2.50
2023-02-27T19:02:26.661Z,3.15
2023-02-27T19:04:53.598Z,2.50
2023-02-27T19:07:22.329Z,2.40
2023-02-27T19:09:49.504Z,2.85
2023-02-27T19:12:17.376Z,2.20
2023-02-27T19:14:44.392Z,2.25
2023-02-27T19:17:13.813Z,2.38
2023-02-27T19:19:40.686Z,2.33
2023-02-27T19:22:07.569Z,2.28
2023-02-27T19:24:34.470Z,2.17
2023-02-27T19:27:03.649Z,2.20
2023-02-27T19:29:34.277Z,2.35
2023-02-27T19:32:07.533Z,2.22
2023-02-27T19:34:37.023Z,2.35
2023-02-27T19:37:06.384Z,2.63
2023-02-27T19:39:33.338Z,2.30
2023-02-27T19:42:00.548Z,2.15
2023-02-27T19:44:29.921Z,2.25
2023-02-27T19:46:56.876Z,1.92
2023-02-27T19:49:26.294Z,2.17
2023-02-27T19:51:55.625Z,2.13
2023-02-27T19:54:22.515Z,2.30
2023-02-27T19:56:49.561Z,2.20
2023-02-27T19:59:21.985Z,2.22
2023-02-27T20:01:48.919Z,2.35
2023-02-27T20:04:17.691Z,2.08
2023-02-27T20:06:50.586Z,2.25
2023-02-27T20:09:23.384Z,2.38
2023-02-27T20:12:00.141Z,2.30
2023-02-27T20:14:29.775Z,2.42
2023-02-27T20:16:59.242Z,2.17
2023-02-27T20:19:26.280Z,2.28
2023-02-27T20:21:56.572Z,2.17
2023-02-27T20:24:24.585Z,2.30
2023-02-27T20:26:53.508Z,2.38
2023-02-27T20:29:27.829Z,2.13
2023-02-27T20:31:57.154Z,2.20
2023-02-27T20:34:28.868Z,2.70
2023-02-27T20:39:24.682Z,2.00
2023-02-27T20:41:51.622Z,2.03
2023-02-27T20:44:18.632Z,2.38
2023-02-27T20:46:49.180Z,2.17
2023-02-27T20:49:19.796Z,2.22
2023-02-27T20:51:49.542Z,2.08
2023-02-27T20:54:22.364Z,2.40
2023-02-27T20:56:55.215Z,2.53
2023-02-27T20:59:25.259Z,2.22
2023-02-27T21:01:53.274Z,2.15
2023-02-27T21:04:25.535Z,2.15
2023-02-27T21:06:53.169Z,2.30
2023-02-27T21:09:20.088Z,2.00
2023-02-27T21:11:47.052Z,2.20
2023-02-27T21:14:14.543Z,2.35
2023-02-27T21:16:44.162Z,2.30
2023-02-27T21:19:14.880Z,2.05
2023-02-27T21:21:41.772Z,2.17
2023-02-27T21:24:11.104Z,2.45
2023-02-27T21:26:39.571Z,2.13
2023-02-27T21:29:14.034Z,1.98
2023-02-27T21:31:45.419Z,2.08
2023-02-27T21:34:32.225Z,2.08
2023-02-27T21:37:02.800Z,2.20
2023-02-27T21:39:34.852Z,2.03
2023-02-27T21:42:01.777Z,2.10
2023-02-27T21:44:31.926Z,2.10
2023-02-27T21:47:09.854Z,2.08
2023-02-27T21:49:39.357Z,1.92
2023-02-27T21:52:06.627Z,2.28
2023-02-27T21:54:34.030Z,1.95
2023-02-27T21:57:03.670Z,2.58
2023-02-27T21:59:31.303Z,2.15
2023-02-27T22:02:02.529Z,2.25
2023-02-27T22:04:29.475Z,2.50
2023-02-27T22:06:58.882Z,2.10
2023-02-27T22:09:30.214Z,2.38
2023-02-27T22:11:57.784Z,1.95
2023-02-27T22:14:28.345Z,2.30
2023-02-27T22:16:57.825Z,2.22
2023-02-27T22:19:24.689Z,2.28
2023-02-27T22:21:51.653Z,2.33
2023-02-27T22:24:18.604Z,2.30
2023-02-27T22:26:45.762Z,1.90
2023-02-27T22:29:12.849Z,2.58
2023-02-27T22:31:42.313Z,2.15
2023-02-27T22:34:18.673Z,2.17
2023-02-27T22:36:52.715Z,1.92
2023-02-27T22:39:22.008Z,2.40
2023-02-27T22:41:49.636Z,2.38
2023-02-27T22:44:19.323Z,2.40
2023-02-27T22:46:51.274Z,2.47
2023-02-27T22:49:23.627Z,2.25
2023-02-27T22:51:53.194Z,2.15
2023-02-27T22:54:25.802Z,2.42
2023-02-27T22:56:56.937Z,2.47
2023-02-27T22:59:25.494Z,2.55
2023-02-27T23:01:54.908Z,2.25
2023-02-27T23:04:22.296Z,2.45
2023-02-27T23:06:52.183Z,2.25
2023-02-27T23:09:22.126Z,2.20
2023-02-27T23:11:49.042Z,2.45
2023-02-27T23:14:18.872Z,2.55
2023-02-27T23:16:48.384Z,2.35
2023-02-27T23:19:20.801Z,2.78
2023-02-27T23:21:50.841Z,2.60
2023-02-27T23:24:21.838Z,2.55
2023-02-27T23:26:51.385Z,2.75
2023-02-27T23:29:18.585Z,2.63
2023-02-27T23:31:47.751Z,2.78
2023-02-27T23:34:14.764Z,3.03
2023-02-27T23:36:43.776Z,3.13
2023-02-27T23:39:10.884Z,2.70
2023-02-27T23:41:40.336Z,2.90
2023-02-27T23:44:12.917Z,2.33
2023-02-27T23:46:42.445Z,2.55
2023-02-27T23:49:15.875Z,2.45
2023-02-27T23:51:42.729Z,2.63
2023-02-27T23:54:10.577Z,2.50
2023-02-27T23:56:37.535Z,2.67
2023-02-27T23:59:08.410Z,2.80
